AirNav   TITAN Aviation Fuels
 
 907 users online  

73OK Spring Creek Ranch Airport
Tishomingo, Oklahoma, USA

GOING TO TISHOMINGO?


FAA INFORMATION EFFECTIVE 07 OCTOBER 2021

Location

FAA Identifier: 73OK
Lat/Long: 34-21-25.3000N 096-44-05.5000W
34-21.421667N 096-44.091667W
34.3570278,-96.7348611
(estimated)
Elevation: 933 ft. / 284 m (estimated)
From city: 9 miles NW of TISHOMINGO, OK
Time zone: UTC -5 (UTC -6 during Standard Time)
Zip code: 74856

Airport Operations

Airport use: Private use. Permission required prior to landing
Activation date: 12/2016
Control tower: no
ARTCC: FORT WORTH CENTER
FSS: WICHITA FLIGHT SERVICE STATION
Attendance: 
Segmented circle: no

Airport Communications

WX AWOS-3 at ADM (15 nm W): 125.6 (580-389-5078)

Nearby radio navigation aids

VOR radial/distance  VOR name  Freq  Var
ADMr062/23.2ARDMORE VORTAC116.7006E

 
NDB name  Hdg/Dist  Freq  Var  ID
ADDMO047/12.440006EAI .- ..
DENISON348/32.034106EDNI -.. -. ..

Airport Services

Runway Information

Runway 15/33

Dimensions: 2100 x 75 ft. / 640 x 23 m
Surface: turf
RUNWAY 15  RUNWAY 33
Traffic pattern: rightleft

Airport Ownership and Management from official FAA records

Ownership: Privately-owned
Owner: PR
Manager: OLIVER SPRING CREEK RANCH
101 NORTH ROBINSON AVE SUITE 900
OKLAHOMA CITY, OK 73102
Phone 405-239-2250
RTO@OLIVERINVESTMENTS.COM

Additional Remarks

FOR CD CTC FORT WORTH ARTCC AT 817-858-7584.

Instrument Procedures

There are no published instrument procedures at 73OK.

Some nearby airports with instrument procedures:

1F4 - Madill Municipal Airport (14 nm S)
KADM - Ardmore Municipal Airport (15 nm W)
1F0 - Ardmore Downtown Executive Airport (23 nm SW)
KADH - Ada Regional Airport (27 nm N)
KDUA - Durant Regional Airport - Eaker Field (30 nm SE)
 
Loc | Ops | Rwys | IFR | FBO | Links
Com | Nav | Svcs | Stats | Notes
Aerial photo
No photo
 
Airport distance calculator
Flying to Spring Creek Ranch Airport? Find the distance to fly.

From to 73OK

Sunrise and sunset
Times for 23-Oct-2021
 Local
(UTC-5)
 Zulu
(UTC)
Morning civil twilight07:1512:15
Sunrise07:4012:40
Sunset18:4323:43
Evening civil twilight19:0800:08

Current date and time
Zulu (UTC)  24-Oct-2021 02:22:57
Local (UTC-5)  23-Oct-2021 21:22:57
 
METAR
KADM 
15nm W 
240155Z AUTO 13006KT 10SM CLR 23/18 A2975 RMK AO2
K1F0 
23nm SW 
240155Z AUTO 16008KT 10SM CLR 24/19 A2976 RMK AO2 T02380186
KADH 
27nm N 
240155Z AUTO 00000KT 10SM CLR 22/18 A2977 RMK AO2
TAF
NOTAMs
Click for the latest NOTAMs
NOTAMs are issued by the DoD/FAA and will open in a separate window not controlled by AirNav.

 

 
 

Would you like to see your business listed on this page?

 If your business provides an interesting product or service to pilots, flight crews, aircraft, or users of the Spring Creek Ranch Airport, you should consider listing it here.  To start the listing process, click on the button below
 
Add a business
 

Other Pages about Spring Creek Ranch Airport

Update a link
 
Copyright © AirNav, LLC. All rights reserved. Privacy Policy  Contact